createdAt,value
2023-04-23T00:02:17.068Z,18.30
2023-04-23T00:04:51.938Z,18.30
2023-04-23T00:07:22.311Z,18.30
2023-04-23T00:09:52.811Z,18.30
2023-04-23T00:12:21.080Z,18.30
2023-04-23T00:14:48.400Z,18.30
2023-04-23T00:17:15.363Z,18.20
2023-04-23T00:19:42.346Z,18.20
2023-04-23T00:22:09.330Z,18.20
2023-04-23T00:24:38.934Z,18.20
2023-04-23T00:27:06.577Z,18.20
2023-04-23T00:29:33.539Z,18.20
2023-04-23T00:32:00.746Z,18.20
2023-04-23T00:34:27.729Z,18.10
2023-04-23T00:36:55.153Z,18.10
2023-04-23T00:39:22.477Z,18.10
2023-04-23T00:41:50.516Z,18.00
2023-04-23T00:44:17.648Z,18.00
2023-04-23T00:46:45.177Z,18.00
2023-04-23T00:49:13.894Z,17.90
2023-04-23T00:51:40.819Z,17.90
2023-04-23T00:54:07.814Z,17.80
2023-04-23T00:56:35.214Z,17.80
2023-04-23T00:59:03.359Z,17.80
2023-04-23T01:01:30.389Z,17.70
2023-04-23T01:03:57.984Z,17.70
2023-04-23T01:06:25.233Z,17.70
2023-04-23T01:08:52.195Z,17.70
2023-04-23T01:11:19.665Z,17.60
2023-04-23T01:13:46.569Z,17.60
2023-04-23T01:16:13.480Z,17.60
2023-04-23T01:18:41.103Z,17.50
2023-04-23T01:21:11.650Z,17.50
2023-04-23T01:23:39.004Z,17.50
2023-04-23T01:26:06.279Z,17.50
2023-04-23T01:28:33.878Z,17.50
2023-04-23T01:31:01.590Z,17.50
2023-04-23T01:33:32.010Z,17.60
2023-04-23T01:36:00.204Z,17.50
2023-04-23T01:38:30.892Z,17.50
2023-04-23T01:40:57.861Z,17.50
2023-04-23T01:43:25.471Z,17.50
2023-04-23T01:45:53.227Z,17.50
2023-04-23T01:48:20.809Z,17.50
2023-04-23T01:50:48.504Z,17.50
2023-04-23T01:53:15.584Z,17.40
2023-04-23T01:55:46.118Z,17.40
2023-04-23T01:58:13.427Z,17.40
2023-04-23T02:00:40.481Z,17.40
2023-04-23T02:03:07.523Z,17.50
2023-04-23T02:05:36.048Z,17.50
2023-04-23T02:08:03.618Z,17.50
2023-04-23T02:10:31.745Z,17.50
2023-04-23T02:12:59.344Z,17.50
2023-04-23T02:15:26.276Z,17.60
2023-04-23T02:17:54.002Z,17.60
2023-04-23T02:20:21.823Z,17.60
2023-04-23T02:22:50.918Z,17.60
2023-04-23T02:25:18.876Z,17.60
2023-04-23T02:27:45.804Z,17.70
2023-04-23T02:30:13.032Z,17.70
2023-04-23T02:32:40.269Z,17.70
2023-04-23T02:35:09.348Z,17.70
2023-04-23T02:37:37.311Z,17.80
2023-04-23T02:40:08.124Z,17.70
2023-04-23T02:42:35.111Z,17.80
2023-04-23T02:45:02.004Z,17.80
2023-04-23T02:47:30.173Z,17.80
2023-04-23T02:49:57.680Z,17.90
2023-04-23T02:52:24.731Z,18.00
2023-04-23T02:54:51.827Z,18.00
2023-04-23T02:57:19.190Z,18.00
2023-04-23T02:59:46.338Z,18.10
2023-04-23T03:02:14.038Z,18.10
2023-04-23T03:04:41.429Z,18.20
2023-04-23T03:07:09.399Z,18.20
2023-04-23T03:09:36.261Z,18.20
2023-04-23T03:12:03.154Z,18.30
2023-04-23T03:14:30.188Z,18.30
2023-04-23T03:16:57.410Z,18.40
2023-04-23T03:19:24.424Z,18.40
2023-04-23T03:21:51.457Z,18.40
2023-04-23T03:24:18.626Z,18.40
2023-04-23T03:26:45.674Z,18.40
2023-04-23T03:29:12.620Z,18.40
2023-04-23T03:31:39.707Z,18.40
2023-04-23T03:34:09.154Z,18.40
2023-04-23T03:36:37.660Z,18.30
2023-04-23T03:39:04.594Z,18.40
2023-04-23T03:41:44.200Z,18.40
2023-04-23T03:44:12.941Z,18.40
2023-04-23T03:46:42.780Z,18.40
2023-04-23T03:49:10.316Z,18.40
2023-04-23T03:51:37.472Z,18.40
2023-04-23T03:54:04.601Z,18.40
2023-04-23T03:56:41.438Z,18.40
2023-04-23T03:59:16.015Z,18.40
2023-04-23T04:01:44.489Z,18.40
2023-04-23T04:04:11.703Z,18.40
2023-04-23T04:06:38.864Z,18.40
2023-04-23T04:09:06.161Z,18.40
2023-04-23T04:11:33.102Z,18.40
2023-04-23T04:14:00.005Z,18.40
2023-04-23T04:16:28.019Z,18.40
2023-04-23T04:18:56.621Z,18.40
2023-04-23T04:21:23.672Z,18.40
2023-04-23T04:23:51.124Z,18.40
2023-04-23T04:26:18.703Z,18.40
2023-04-23T04:28:45.629Z,18.40
2023-04-23T04:31:15.976Z,18.40
2023-04-23T04:33:43.328Z,18.40
2023-04-23T04:36:10.236Z,18.40
2023-04-23T04:38:39.723Z,18.50
2023-04-23T04:41:07.696Z,18.50
2023-04-23T04:43:34.877Z,18.50
2023-04-23T04:46:01.948Z,18.50
2023-04-23T04:48:28.879Z,18.50
2023-04-23T04:50:55.770Z,18.60
2023-04-23T04:53:22.778Z,18.60
2023-04-23T04:55:49.862Z,18.60
2023-04-23T04:58:16.931Z,18.70
2023-04-23T05:00:44.529Z,18.70
2023-04-23T05:03:14.316Z,18.70
2023-04-23T05:05:41.485Z,18.70
2023-04-23T05:08:08.746Z,18.80
2023-04-23T05:10:35.644Z,18.80
2023-04-23T05:13:02.544Z,18.80
2023-04-23T05:15:29.517Z,18.80
2023-04-23T05:17:56.593Z,18.80
2023-04-23T05:20:23.556Z,18.80
2023-04-23T05:22:50.476Z,18.80
2023-04-23T05:25:17.367Z,18.80
2023-04-23T05:27:44.277Z,18.80
2023-04-23T05:30:11.556Z,18.80
2023-04-23T05:32:39.305Z,18.80
2023-04-23T05:35:07.178Z,18.80
2023-04-23T05:37:34.141Z,18.80
2023-04-23T05:40:02.560Z,18.80
2023-04-23T05:42:29.533Z,18.80
2023-04-23T05:44:56.437Z,18.80
2023-04-23T05:47:23.375Z,18.90
2023-04-23T05:49:50.267Z,18.90
2023-04-23T05:52:17.755Z,18.90
2023-04-23T05:54:44.891Z,18.90
2023-04-23T05:57:12.636Z,18.90
2023-04-23T05:59:39.496Z,18.90
2023-04-23T06:02:07.504Z,18.90
2023-04-23T06:04:34.619Z,19.00
2023-04-23T06:07:01.776Z,19.00
2023-04-23T06:09:28.677Z,18.90
2023-04-23T06:11:55.730Z,19.00
2023-04-23T06:14:22.623Z,19.00
2023-04-23T06:16:49.545Z,19.00
2023-04-23T06:19:16.813Z,19.00
2023-04-23T06:21:43.723Z,19.00
2023-04-23T06:24:10.634Z,19.00
2023-04-23T06:26:37.531Z,19.00
2023-04-23T06:29:12.050Z,19.00
2023-04-23T06:31:49.974Z,19.10
2023-04-23T06:34:16.872Z,19.00
2023-04-23T06:36:43.873Z,19.00
2023-04-23T06:39:10.733Z,19.10
2023-04-23T06:41:38.149Z,19.00
2023-04-23T06:44:21.818Z,19.10
2023-04-23T06:46:54.421Z,19.10
2023-04-23T06:49:21.352Z,19.10
2023-04-23T06:51:48.385Z,19.00
2023-04-23T06:54:15.276Z,19.00
2023-04-23T06:56:42.179Z,19.00
2023-04-23T06:59:09.058Z,19.00
2023-04-23T07:01:44.628Z,18.90
2023-04-23T07:04:11.540Z,18.90
2023-04-23T07:06:38.430Z,18.90
2023-04-23T07:09:05.913Z,18.90
2023-04-23T07:11:34.811Z,18.90
2023-04-23T07:14:01.739Z,18.90
2023-04-23T07:16:32.179Z,18.90
2023-04-23T07:19:01.179Z,18.80
2023-04-23T07:21:28.814Z,18.80
2023-04-23T07:23:59.845Z,18.80
2023-04-23T07:26:27.818Z,18.80
2023-04-23T07:28:54.744Z,18.80
2023-04-23T07:31:22.266Z,18.70
2023-04-23T07:33:49.358Z,18.70
2023-04-23T07:36:16.298Z,18.70
2023-04-23T07:38:43.277Z,18.70
2023-04-23T07:41:10.354Z,18.70
2023-04-23T07:43:37.242Z,18.70
2023-04-23T07:46:05.061Z,18.70
2023-04-23T07:48:32.057Z,18.70
2023-04-23T07:50:59.041Z,18.70
2023-04-23T07:53:26.175Z,18.80
2023-04-23T07:55:53.102Z,18.80
2023-04-23T07:58:20.002Z,18.80
2023-04-23T08:00:46.931Z,18.80
2023-04-23T08:03:13.917Z,18.80
2023-04-23T08:05:41.431Z,18.90
2023-04-23T08:08:09.048Z,18.90
2023-04-23T08:10:36.341Z,18.90
2023-04-23T08:13:03.247Z,18.90
2023-04-23T08:15:30.373Z,18.90
2023-04-23T08:17:57.327Z,18.90
2023-04-23T08:20:24.265Z,18.90
2023-04-23T08:22:53.561Z,18.90
2023-04-23T08:25:21.100Z,18.90
2023-04-23T08:27:48.014Z,18.90
2023-04-23T08:30:15.089Z,18.90
2023-04-23T08:32:42.148Z,18.90
2023-04-23T08:35:09.531Z,18.90
2023-04-23T08:37:36.538Z,18.80
2023-04-23T08:40:05.048Z,18.80
2023-04-23T08:43:02.134Z,18.80
2023-04-23T08:45:30.872Z,18.80
2023-04-23T08:48:02.446Z,18.70
2023-04-23T08:50:30.963Z,18.60
2023-04-23T08:52:58.464Z,18.60
2023-04-23T08:55:25.834Z,18.60
2023-04-23T08:57:53.004Z,18.60
2023-04-23T09:00:23.200Z,18.50
2023-04-23T09:02:50.642Z,18.50
2023-04-23T09:05:17.847Z,18.50
2023-04-23T09:07:45.253Z,18.50
2023-04-23T09:10:16.253Z,18.50
2023-04-23T09:12:44.986Z,18.50
2023-04-23T09:15:13.818Z,18.50
2023-04-23T09:17:45.958Z,18.50
2023-04-23T09:20:14.863Z,18.50
2023-04-23T09:22:49.326Z,18.50
2023-04-23T09:25:19.729Z,18.50
2023-04-23T09:27:48.230Z,18.60
2023-04-23T09:30:16.404Z,18.50
2023-04-23T09:32:49.475Z,18.60
2023-04-23T09:35:20.119Z,18.50
2023-04-23T09:37:51.068Z,18.50
2023-04-23T09:40:22.731Z,18.50
2023-04-23T09:42:53.093Z,18.50
2023-04-23T09:45:20.734Z,18.50
2023-04-23T09:47:56.044Z,18.40
2023-04-23T09:50:40.580Z,18.40
2023-04-23T09:53:09.659Z,18.40
2023-04-23T09:55:39.744Z,18.40
2023-04-23T09:58:15.680Z,18.40
2023-04-23T10:00:43.054Z,18.40
2023-04-23T10:03:10.960Z,18.50
2023-04-23T10:05:59.813Z,18.50
2023-04-23T10:08:28.777Z,18.60
2023-04-23T10:11:06.636Z,18.60
2023-04-23T10:13:37.594Z,18.60
2023-04-23T10:16:18.620Z,18.70
2023-04-23T10:18:52.050Z,18.80
2023-04-23T10:21:20.844Z,18.80
2023-04-23T10:23:50.418Z,18.80
2023-04-23T10:26:19.518Z,18.80
2023-04-23T10:28:49.026Z,18.90
2023-04-23T10:31:16.584Z,19.00
2023-04-23T10:33:55.911Z,19.00
2023-04-23T10:36:25.892Z,19.00
2023-04-23T10:38:58.817Z,19.00
2023-04-23T10:41:34.952Z,19.00
2023-04-23T10:44:03.103Z,19.00
2023-04-23T10:46:31.841Z,19.10
2023-04-23T10:49:16.763Z,19.10
2023-04-23T10:54:20.375Z,19.10
2023-04-23T10:57:00.165Z,19.10
2023-04-23T10:59:29.729Z,19.10
2023-04-23T11:01:59.622Z,19.10
2023-04-23T11:04:29.930Z,19.00
2023-04-23T11:07:05.577Z,19.00
2023-04-23T11:09:44.285Z,19.00
2023-04-23T11:12:24.789Z,19.00
2023-04-23T11:14:56.977Z,19.00
2023-04-23T11:17:32.903Z,18.90
2023-04-23T11:20:14.962Z,19.00
2023-04-23T11:22:46.631Z,19.00
2023-04-23T11:25:22.928Z,18.90
2023-04-23T11:27:51.705Z,19.00
2023-04-23T11:30:25.271Z,19.00
2023-04-23T11:32:54.824Z,19.00
2023-04-23T11:35:28.529Z,19.00
2023-04-23T11:37:56.386Z,19.10
2023-04-23T11:40:24.233Z,19.20
2023-04-23T11:42:57.437Z,19.30
2023-04-23T11:45:26.490Z,19.30
2023-04-23T11:47:56.347Z,19.40
2023-04-23T11:50:33.602Z,19.50
2023-04-23T11:53:10.109Z,19.50
2023-04-23T11:55:38.213Z,19.50
2023-04-23T11:58:05.786Z,19.50
2023-04-23T12:00:32.720Z,19.60
2023-04-23T12:03:01.965Z,19.50
2023-04-23T12:05:37.770Z,19.60
2023-04-23T12:08:10.132Z,19.60
2023-04-23T12:11:06.142Z,19.50
2023-04-23T12:13:33.786Z,19.50
2023-04-23T12:16:05.332Z,19.50
2023-04-23T12:18:42.137Z,19.60
2023-04-23T12:21:11.309Z,19.70
2023-04-23T12:23:40.357Z,19.80
2023-04-23T12:26:15.825Z,19.80
2023-04-23T12:28:59.403Z,20.00
2023-04-23T12:31:29.133Z,20.10
2023-04-23T12:34:08.275Z,20.20
2023-04-23T12:36:40.813Z,20.40
2023-04-23T12:39:20.597Z,20.50
2023-04-23T12:41:49.901Z,20.60
2023-04-23T12:44:16.775Z,20.60
2023-04-23T12:46:43.673Z,20.60
2023-04-23T12:49:10.595Z,20.70
2023-04-23T12:51:37.705Z,20.60
2023-04-23T12:54:04.785Z,20.60
2023-04-23T12:56:31.696Z,20.60
2023-04-23T12:59:01.816Z,20.60
2023-04-23T13:01:29.144Z,20.60
2023-04-23T13:03:56.831Z,20.60
2023-04-23T13:06:23.990Z,20.60
2023-04-23T13:08:50.991Z,20.60
2023-04-23T13:11:17.879Z,20.70
2023-04-23T13:13:44.809Z,20.70
2023-04-23T13:16:11.838Z,20.70
2023-04-23T13:18:38.762Z,20.80
2023-04-23T13:21:05.937Z,20.90
2023-04-23T13:23:32.821Z,21.00
2023-04-23T13:25:59.709Z,21.00
2023-04-23T13:28:26.934Z,21.10
2023-04-23T13:30:53.986Z,21.10
2023-04-23T13:33:21.193Z,21.10
2023-04-23T13:35:48.163Z,21.00
2023-04-23T13:38:15.093Z,21.00
2023-04-23T13:40:41.984Z,21.00
2023-04-23T13:43:08.884Z,21.00
2023-04-23T13:45:35.944Z,21.00
2023-04-23T13:48:02.942Z,20.90
2023-04-23T13:50:29.874Z,20.90
2023-04-23T13:52:56.767Z,20.80
2023-04-23T13:55:23.652Z,20.80
2023-04-23T13:57:50.519Z,20.80
2023-04-23T14:00:18.120Z,20.80
2023-04-23T14:02:45.070Z,20.80
2023-04-23T14:05:12.144Z,20.80
2023-04-23T14:07:48.086Z,20.80
2023-04-23T14:10:15.539Z,20.80
2023-04-23T14:12:42.430Z,20.80
2023-04-23T14:15:09.955Z,20.80
2023-04-23T14:17:39.188Z,20.80
2023-04-23T14:20:07.672Z,20.80
2023-04-23T14:22:34.599Z,20.80
2023-04-23T14:25:10.912Z,20.80
2023-04-23T14:27:50.477Z,20.80
2023-04-23T14:30:21.547Z,20.90
2023-04-23T14:32:50.010Z,20.80
2023-04-23T14:35:17.480Z,20.90
2023-04-23T14:37:45.582Z,20.90
2023-04-23T14:40:15.745Z,20.80
2023-04-23T14:42:42.826Z,20.90
2023-04-23T14:45:09.954Z,20.90
2023-04-23T14:47:36.866Z,20.90
2023-04-23T14:50:04.234Z,20.90
2023-04-23T14:52:31.612Z,20.90
2023-04-23T14:54:58.517Z,21.00
2023-04-23T14:57:25.411Z,21.00
2023-04-23T14:59:52.328Z,21.10
2023-04-23T15:02:19.312Z,21.10
2023-04-23T15:04:46.414Z,21.20
2023-04-23T15:07:13.295Z,21.30
2023-04-23T15:09:40.440Z,21.30
2023-04-23T15:12:43.756Z,21.30
2023-04-23T15:15:43.109Z,21.30
2023-04-23T15:18:14.228Z,21.30
2023-04-23T15:20:42.166Z,21.30
2023-04-23T15:23:10.105Z,21.40
2023-04-23T15:25:37.385Z,21.40
2023-04-23T15:28:05.585Z,21.40
2023-04-23T15:30:32.652Z,21.40
2023-04-23T15:32:59.615Z,21.40
2023-04-23T15:35:28.031Z,21.40
2023-04-23T15:37:54.944Z,21.50
2023-04-23T15:40:21.833Z,21.60
2023-04-23T15:42:50.043Z,21.60
2023-04-23T15:45:17.243Z,21.60
2023-04-23T15:47:44.497Z,21.70
2023-04-23T15:50:11.821Z,21.70
2023-04-23T15:52:40.539Z,21.80
2023-04-23T15:55:08.088Z,21.80
2023-04-23T15:57:34.977Z,21.80
2023-04-23T16:00:01.904Z,21.80
2023-04-23T16:02:39.030Z,21.80
2023-04-23T16:05:06.196Z,21.80
2023-04-23T16:07:33.109Z,21.80
2023-04-23T16:10:00.040Z,21.80
2023-04-23T16:12:26.918Z,21.80
2023-04-23T16:14:53.928Z,21.80
2023-04-23T16:17:20.842Z,21.70
2023-04-23T16:19:47.976Z,21.70
2023-04-23T16:22:16.210Z,21.70
2023-04-23T16:24:43.129Z,21.70
2023-04-23T16:27:10.957Z,21.60
2023-04-23T16:29:38.732Z,21.60
2023-04-23T16:32:07.297Z,21.60
2023-04-23T16:34:34.492Z,21.50
2023-04-23T16:37:01.400Z,21.50
2023-04-23T16:39:28.314Z,21.40
2023-04-23T16:41:55.194Z,21.40
2023-04-23T16:44:22.080Z,21.30
2023-04-23T16:46:48.992Z,21.30
2023-04-23T16:49:15.966Z,21.30
2023-04-23T16:51:42.828Z,21.30
2023-04-23T16:54:09.854Z,21.30
2023-04-23T16:56:37.332Z,21.30
2023-04-23T16:59:04.895Z,21.30
2023-04-23T17:01:31.888Z,21.30
2023-04-23T17:03:59.070Z,21.30
2023-04-23T17:06:32.998Z,21.20
2023-04-23T17:09:03.139Z,21.20
2023-04-23T17:11:31.027Z,21.10
2023-04-23T17:13:58.297Z,21.10
2023-04-23T17:16:26.754Z,21.00
2023-04-23T17:18:54.937Z,21.00
2023-04-23T17:21:22.724Z,20.90
2023-04-23T17:23:49.753Z,20.90
2023-04-23T17:26:16.702Z,20.90
2023-04-23T17:28:43.632Z,20.90
2023-04-23T17:31:11.257Z,20.90
2023-04-23T17:33:38.742Z,20.80
2023-04-23T17:36:05.854Z,20.80
2023-04-23T17:38:32.738Z,20.80
2023-04-23T17:40:59.981Z,20.80
2023-04-23T17:43:27.346Z,20.70
2023-04-23T17:45:54.479Z,20.60
2023-04-23T17:48:23.001Z,20.70
2023-04-23T17:50:50.186Z,20.60
2023-04-23T17:53:17.148Z,20.50
2023-04-23T17:55:44.030Z,20.50
2023-04-23T17:58:10.905Z,20.40
2023-04-23T18:00:43.119Z,20.30
2023-04-23T18:03:11.657Z,20.30
2023-04-23T18:05:39.181Z,20.20
2023-04-23T18:08:07.453Z,20.10
2023-04-23T18:10:34.386Z,20.10
2023-04-23T18:13:03.341Z,20.00
2023-04-23T18:15:32.298Z,19.90
2023-04-23T18:17:59.715Z,19.80
2023-04-23T18:20:26.955Z,19.70
2023-04-23T18:22:56.628Z,19.60
2023-04-23T18:25:25.245Z,19.50
2023-04-23T18:27:52.177Z,19.40
2023-04-23T18:30:23.104Z,19.40
2023-04-23T18:33:00.807Z,19.30
2023-04-23T18:35:27.752Z,19.20
2023-04-23T18:38:02.664Z,19.10
2023-04-23T18:40:29.663Z,19.00
2023-04-23T18:42:56.756Z,18.90
2023-04-23T18:45:23.855Z,18.90
2023-04-23T18:47:57.692Z,18.80
2023-04-23T18:50:57.887Z,18.70
2023-04-23T18:53:24.759Z,18.60
2023-04-23T18:55:51.643Z,18.50
2023-04-23T18:58:18.513Z,18.40
2023-04-23T19:00:45.485Z,18.40
2023-04-23T19:03:25.334Z,18.30
2023-04-23T19:05:52.873Z,18.20
2023-04-23T19:08:19.766Z,18.10
2023-04-23T19:10:46.728Z,18.00
2023-04-23T19:13:13.605Z,18.00
2023-04-23T19:15:40.617Z,17.90
2023-04-23T19:18:07.564Z,17.80
2023-04-23T19:20:34.496Z,17.80
2023-04-23T19:23:01.385Z,17.70
2023-04-23T19:25:28.271Z,17.70
2023-04-23T19:27:55.142Z,17.60
2023-04-23T19:30:22.023Z,17.50
2023-04-23T19:32:48.986Z,17.50
2023-04-23T19:35:15.940Z,17.40
2023-04-23T19:37:42.808Z,17.30
2023-04-23T19:40:10.723Z,17.30
2023-04-23T19:42:37.624Z,17.20
2023-04-23T19:45:04.685Z,17.20
2023-04-23T19:47:33.106Z,17.10
2023-04-23T19:50:00.065Z,17.00
2023-04-23T19:52:27.958Z,17.00
2023-04-23T19:54:54.866Z,16.90
2023-04-23T19:57:22.258Z,16.90
2023-04-23T19:59:49.465Z,16.70
2023-04-23T20:02:16.863Z,16.70
2023-04-23T20:04:44.049Z,16.60
2023-04-23T20:07:11.128Z,16.50
2023-04-23T20:09:38.130Z,16.40
2023-04-23T20:12:05.330Z,16.40
2023-04-23T20:14:32.230Z,16.30
2023-04-23T20:16:59.318Z,16.20
2023-04-23T20:19:26.245Z,16.20
2023-04-23T20:21:53.696Z,16.10
2023-04-23T20:24:23.210Z,16.00
2023-04-23T20:26:50.334Z,15.90
2023-04-23T20:29:17.239Z,15.90
2023-04-23T20:31:48.732Z,15.80
2023-04-23T20:34:18.878Z,15.80
2023-04-23T20:36:48.910Z,15.70
2023-04-23T20:39:16.778Z,15.70
2023-04-23T20:41:46.389Z,15.60
2023-04-23T20:44:13.302Z,15.50
2023-04-23T20:46:40.508Z,15.50
2023-04-23T20:49:07.417Z,15.40
2023-04-23T20:51:34.455Z,15.40
2023-04-23T20:54:02.222Z,15.30
2023-04-23T20:56:29.790Z,15.20
2023-04-23T20:58:59.885Z,15.20
2023-04-23T21:01:27.283Z,15.20
2023-04-23T21:03:54.743Z,15.10
2023-04-23T21:06:22.210Z,15.10
2023-04-23T21:08:49.334Z,15.00
2023-04-23T21:11:19.090Z,15.00
2023-04-23T21:13:46.923Z,14.90
2023-04-23T21:16:14.220Z,14.90
2023-04-23T21:18:41.921Z,14.90
2023-04-23T21:21:08.819Z,14.80
2023-04-23T21:23:36.259Z,14.80
2023-04-23T21:26:03.592Z,14.80
2023-04-23T21:28:31.430Z,14.70
2023-04-23T21:31:07.719Z,14.70
2023-04-23T21:33:34.647Z,14.70
2023-04-23T21:36:01.576Z,14.60
2023-04-23T21:38:28.518Z,14.60
2023-04-23T21:40:55.454Z,14.60
2023-04-23T21:43:24.305Z,14.50
2023-04-23T21:45:51.402Z,14.50
2023-04-23T21:48:18.412Z,14.40
2023-04-23T21:50:45.363Z,14.40
2023-04-23T21:53:13.082Z,14.40
2023-04-23T21:55:39.986Z,14.40
2023-04-23T21:58:17.337Z,14.30
2023-04-23T22:00:45.773Z,14.30
2023-04-23T22:03:14.665Z,14.30
2023-04-23T22:05:49.348Z,14.30
2023-04-23T22:08:17.204Z,14.20
2023-04-23T22:10:44.681Z,14.20
2023-04-23T22:13:14.269Z,14.20
2023-04-23T22:15:41.326Z,14.10
2023-04-23T22:18:08.610Z,14.10
2023-04-23T22:20:37.536Z,14.10
2023-04-23T22:23:04.470Z,14.10
2023-04-23T22:25:31.384Z,14.10
2023-04-23T22:27:58.489Z,14.10
2023-04-23T22:30:25.409Z,14.10
2023-04-23T22:32:52.312Z,14.00
2023-04-23T22:35:19.297Z,14.00
2023-04-23T22:37:46.219Z,14.00
2023-04-23T22:40:13.101Z,14.00
2023-04-23T22:42:39.965Z,14.00
2023-04-23T22:45:08.334Z,14.00
2023-04-23T22:47:35.234Z,14.00
2023-04-23T22:50:02.268Z,14.00
2023-04-23T22:52:29.140Z,13.90
2023-04-23T22:54:56.847Z,13.90
2023-04-23T22:57:24.456Z,13.90
2023-04-23T22:59:51.355Z,13.90
2023-04-23T23:02:18.415Z,13.90
2023-04-23T23:04:45.893Z,13.90
2023-04-23T23:07:12.976Z,13.90
2023-04-23T23:09:39.869Z,13.90
2023-04-23T23:12:06.738Z,13.90
2023-04-23T23:14:34.005Z,13.80
2023-04-23T23:17:00.856Z,13.80
2023-04-23T23:19:27.998Z,13.80
2023-04-23T23:21:55.032Z,13.80
2023-04-23T23:24:22.383Z,13.80
2023-04-23T23:26:50.353Z,13.80
2023-04-23T23:29:17.247Z,13.80
2023-04-23T23:31:44.250Z,13.80
2023-04-23T23:34:11.762Z,13.80
2023-04-23T23:36:38.709Z,13.80
2023-04-23T23:39:06.694Z,13.70
2023-04-23T23:41:33.882Z,13.70
2023-04-23T23:44:00.833Z,13.70
2023-04-23T23:46:27.983Z,13.70
2023-04-23T23:48:55.022Z,13.70
2023-04-23T23:51:21.916Z,13.60
2023-04-23T23:53:48.936Z,13.60
2023-04-23T23:56:15.855Z,13.60
2023-04-23T23:58:42.761Z,13.60
